Aviation Digital Data Service (ADDS)

Output produced by METARs form (1536 UTC 29 April 2017)
found at http://aviationweather.gov/adds/metars/
 
KEWR 291516Z 2915/3018 28014G21KT P6SM FEW040 BKN200 
     FM292300 31010KT P6SM BKN200 
     FM300300 34007KT P6SM BKN200 
     FM300500 01006KT P6SM FEW250 
     FM301100 04009KT P6SM SKC 
     FM301400 08007KT P6SM SKC